createdAt,value
2023-04-02T00:00:34.192Z,6.25
2023-04-02T00:01:34.094Z,6.25
2023-04-02T00:02:34.288Z,6.25
2023-04-02T00:03:34.145Z,6.22
2023-04-02T00:04:34.146Z,6.21
2023-04-02T00:05:34.321Z,6.21
2023-04-02T00:06:35.130Z,6.21
2023-04-02T00:07:34.018Z,6.19
2023-04-02T00:08:34.124Z,6.19
2023-04-02T00:09:34.110Z,6.18
2023-04-02T00:10:36.093Z,6.11
2023-04-02T00:11:34.021Z,6.11
2023-04-02T00:12:36.000Z,6.10
2023-04-02T00:13:33.991Z,6.10
2023-04-02T00:14:35.003Z,6.09
2023-04-02T00:15:34.355Z,6.07
2023-04-02T00:16:36.051Z,6.07
2023-04-02T00:17:33.943Z,6.10
2023-04-02T00:18:34.044Z,6.09
2023-04-02T00:19:33.930Z,6.06
2023-04-02T00:20:33.942Z,6.03
2023-04-02T00:21:33.889Z,6.03
2023-04-02T00:22:33.926Z,6.03
2023-04-02T00:23:33.854Z,6.01
2023-04-02T00:24:33.961Z,6.04
2023-04-02T00:25:34.102Z,6.03
2023-04-02T00:26:33.954Z,6.01
2023-04-02T00:27:33.840Z,5.96
2023-04-02T00:28:33.910Z,5.95
2023-04-02T00:29:34.075Z,5.93
2023-04-02T00:30:33.914Z,5.95
2023-04-02T00:31:33.797Z,5.91
2023-04-02T00:32:34.059Z,5.91
2023-04-02T00:33:33.780Z,5.89
2023-04-02T00:34:33.838Z,5.91
2023-04-02T00:35:33.956Z,5.89
2023-04-02T00:36:33.862Z,5.91
2023-04-02T00:37:33.710Z,5.92
2023-04-02T00:38:33.751Z,5.93
2023-04-02T00:39:33.685Z,5.92
2023-04-02T00:40:33.805Z,5.91
2023-04-02T00:41:33.694Z,5.85
2023-04-02T00:42:33.957Z,5.78
2023-04-02T00:43:33.652Z,5.75
2023-04-02T00:44:33.669Z,5.73
2023-04-02T00:45:33.910Z,5.73
2023-04-02T00:46:33.718Z,5.71
2023-04-02T00:47:33.668Z,5.70
2023-04-02T00:48:33.705Z,5.68
2023-04-02T00:49:33.612Z,5.68
2023-04-02T00:50:33.644Z,5.71
2023-04-02T00:51:33.576Z,5.68
2023-04-02T00:52:33.628Z,5.70
2023-04-02T00:53:33.558Z,5.70
2023-04-02T00:54:33.636Z,5.71
2023-04-02T00:55:33.776Z,5.71
2023-04-02T00:56:36.669Z,5.70
2023-04-02T00:57:33.745Z,5.70
2023-04-02T00:58:55.597Z,5.71
2023-04-02T00:59:33.505Z,5.71
2023-04-02T01:00:35.581Z,5.73
2023-04-02T01:01:33.573Z,5.71
2023-04-02T01:02:33.629Z,5.71
2023-04-02T01:03:33.718Z,5.73
2023-04-02T01:04:33.519Z,5.71
2023-04-02T01:05:33.727Z,5.70
2023-04-02T01:06:33.508Z,5.68
2023-04-02T01:07:33.458Z,5.68
2023-04-02T01:08:33.433Z,5.68
2023-04-02T01:09:33.385Z,5.67
2023-04-02T01:10:33.551Z,5.64
2023-04-02T01:11:33.374Z,5.66
2023-04-02T01:12:33.392Z,5.63
2023-04-02T01:13:33.384Z,5.56
2023-04-02T01:14:33.370Z,5.52
2023-04-02T01:15:33.554Z,5.50
2023-04-02T01:16:33.403Z,5.50
2023-04-02T01:17:33.377Z,5.52
2023-04-02T01:18:33.329Z,5.48
2023-04-02T01:19:33.296Z,5.45
2023-04-02T01:20:33.308Z,5.45
2023-04-02T01:21:33.268Z,5.41
2023-04-02T01:22:33.322Z,5.40
2023-04-02T01:23:33.265Z,5.38
2023-04-02T01:24:33.341Z,5.37
2023-04-02T01:25:33.512Z,5.37
2023-04-02T01:26:33.426Z,5.38
2023-04-02T01:27:33.201Z,5.40
2023-04-02T01:28:33.266Z,5.37
2023-04-02T01:29:34.101Z,5.37
2023-04-02T01:30:33.293Z,5.38
2023-04-02T01:31:33.281Z,5.40
2023-04-02T01:32:33.319Z,5.37
2023-04-02T01:33:33.142Z,5.37
2023-04-02T01:34:33.258Z,5.35
2023-04-02T01:35:33.322Z,5.35
2023-04-02T01:36:33.222Z,5.40
2023-04-02T01:37:33.097Z,5.34
2023-04-02T01:38:33.142Z,5.32
2023-04-02T01:39:33.071Z,5.32
2023-04-02T01:40:33.177Z,5.34
2023-04-02T01:41:33.048Z,5.32
2023-04-02T01:42:34.244Z,5.34
2023-04-02T01:43:33.024Z,5.35
2023-04-02T01:44:56.152Z,5.37
2023-04-02T01:45:33.314Z,5.37
2023-04-02T01:46:35.054Z,5.40
2023-04-02T01:47:33.063Z,5.35
2023-04-02T01:48:33.000Z,5.34
2023-04-02T01:49:32.988Z,5.30
2023-04-02T01:50:33.053Z,5.30
2023-04-02T01:51:32.960Z,5.30
2023-04-02T01:52:33.068Z,5.32
2023-04-02T01:53:32.932Z,5.34
2023-04-02T01:54:32.932Z,5.35
2023-04-02T01:55:33.218Z,5.37
2023-04-02T01:56:32.941Z,5.35
2023-04-02T01:57:32.993Z,5.35
2023-04-02T01:58:32.994Z,5.35
2023-04-02T01:59:32.893Z,5.35
2023-04-02T02:00:32.988Z,5.37
2023-04-02T02:01:32.878Z,5.37
2023-04-02T02:02:32.976Z,5.35
2023-04-02T02:03:32.838Z,5.35
2023-04-02T02:04:33.067Z,5.31
2023-04-02T02:05:33.145Z,5.27
2023-04-02T02:06:32.836Z,5.28
2023-04-02T02:07:32.783Z,5.30
2023-04-02T02:08:32.834Z,5.31
2023-04-02T02:09:32.780Z,5.31
2023-04-02T02:10:32.891Z,5.35
2023-04-02T02:11:32.752Z,5.37
2023-04-02T02:12:32.756Z,5.40
2023-04-02T02:13:32.735Z,5.45
2023-04-02T02:14:33.423Z,5.43
2023-04-02T02:15:32.849Z,5.43
2023-04-02T02:16:32.841Z,5.46
2023-04-02T02:17:32.736Z,5.48
2023-04-02T02:18:32.694Z,5.55
2023-04-02T02:19:32.676Z,5.56
2023-04-02T02:20:32.738Z,5.59
2023-04-02T02:21:32.645Z,5.56
2023-04-02T02:22:32.723Z,5.55
2023-04-02T02:23:32.629Z,5.52
2023-04-02T02:24:32.657Z,5.50
2023-04-02T02:25:33.070Z,5.53
2023-04-02T02:26:32.656Z,5.53
2023-04-02T02:27:32.597Z,5.56
2023-04-02T02:28:32.672Z,5.56
2023-04-02T02:29:32.568Z,5.57
2023-04-02T02:30:35.695Z,5.60
2023-04-02T02:31:32.554Z,5.60
2023-04-02T02:32:34.632Z,5.63
2023-04-02T02:33:32.529Z,5.64
2023-04-02T02:34:33.534Z,5.66
2023-04-02T02:35:32.565Z,5.66
2023-04-02T02:36:32.519Z,5.66
2023-04-02T02:37:32.602Z,5.66
2023-04-02T02:38:32.527Z,5.67
2023-04-02T02:39:32.473Z,5.67
2023-04-02T02:40:33.478Z,5.67
2023-04-02T02:41:32.467Z,5.68
2023-04-02T02:42:32.464Z,5.70
2023-04-02T02:43:32.419Z,5.71
2023-04-02T02:44:32.480Z,5.73
2023-04-02T02:45:32.478Z,5.73
2023-04-02T02:46:32.488Z,5.74
2023-04-02T02:47:32.415Z,5.75
2023-04-02T02:48:32.404Z,5.75
2023-04-02T02:49:32.617Z,5.78
2023-04-02T02:50:32.454Z,5.81
2023-04-02T02:51:32.351Z,5.82
2023-04-02T02:52:32.446Z,5.83
2023-04-02T02:53:32.315Z,5.82
2023-04-02T02:54:32.352Z,5.83
2023-04-02T02:55:32.547Z,5.83
2023-04-02T02:56:32.347Z,5.83
2023-04-02T02:57:32.347Z,5.82
2023-04-02T02:58:32.368Z,5.83
2023-04-02T02:59:32.254Z,5.83
2023-04-02T03:00:32.303Z,5.83
2023-04-02T03:01:32.307Z,5.83
2023-04-02T03:02:32.393Z,5.85
2023-04-02T03:03:32.371Z,5.86
2023-04-02T03:04:32.327Z,5.88
2023-04-02T03:05:32.276Z,5.88
2023-04-02T03:06:32.233Z,5.89
2023-04-02T03:07:32.185Z,5.91
2023-04-02T03:08:32.241Z,5.91
2023-04-02T03:09:32.150Z,5.92
2023-04-02T03:10:32.463Z,5.92
2023-04-02T03:11:32.120Z,5.91
2023-04-02T03:12:32.160Z,5.92
2023-04-02T03:13:32.118Z,5.93
2023-04-02T03:14:32.166Z,5.92
2023-04-02T03:15:32.132Z,5.92
2023-04-02T03:16:32.090Z,5.93
2023-04-02T03:17:32.079Z,5.95
2023-04-02T03:18:34.160Z,5.95
2023-04-02T03:19:32.047Z,5.95
2023-04-02T03:20:32.144Z,5.95
2023-04-02T03:21:32.049Z,5.95
2023-04-02T03:22:32.057Z,5.95
2023-04-02T03:23:32.023Z,5.95
2023-04-02T03:24:32.040Z,5.95
2023-04-02T03:25:31.997Z,5.96
2023-04-02T03:26:32.980Z,5.98
2023-04-02T03:27:31.982Z,6.01
2023-04-02T03:28:31.981Z,6.01
2023-04-02T03:29:31.942Z,5.96
2023-04-02T03:30:31.989Z,5.93
2023-04-02T03:31:32.746Z,5.95
2023-04-02T03:32:32.076Z,5.95
2023-04-02T03:33:31.896Z,5.95
2023-04-02T03:34:31.913Z,5.98
2023-04-02T03:35:31.903Z,5.98
2023-04-02T03:36:31.925Z,6.00
2023-04-02T03:37:31.876Z,6.00
2023-04-02T03:38:31.957Z,6.01
2023-04-02T03:39:31.833Z,6.01
2023-04-02T03:40:31.868Z,6.04
2023-04-02T03:41:31.844Z,6.04
2023-04-02T03:42:31.909Z,6.04
2023-04-02T03:43:34.290Z,6.06
2023-04-02T03:44:31.893Z,6.06
2023-04-02T03:45:31.778Z,6.07
2023-04-02T03:46:31.878Z,6.06
2023-04-02T03:47:31.788Z,6.10
2023-04-02T03:48:31.848Z,6.09
2023-04-02T03:49:31.748Z,6.09
2023-04-02T03:50:31.841Z,6.07
2023-04-02T03:51:31.713Z,6.06
2023-04-02T03:52:31.740Z,6.07
2023-04-02T03:53:31.714Z,6.07
2023-04-02T03:54:31.752Z,6.09
2023-04-02T03:55:31.678Z,6.10
2023-04-02T03:56:32.157Z,6.10
2023-04-02T03:57:31.718Z,6.10
2023-04-02T03:58:31.692Z,6.10
2023-04-02T03:59:31.638Z,6.09
2023-04-02T04:00:31.695Z,6.09
2023-04-02T04:01:31.605Z,6.11
2023-04-02T04:02:31.756Z,6.11
2023-04-02T04:03:31.589Z,6.11
2023-04-02T04:04:31.916Z,6.11
2023-04-02T04:05:31.563Z,6.13
2023-04-02T04:06:31.648Z,6.14
2023-04-02T04:07:31.569Z,6.14
2023-04-02T04:08:33.588Z,6.16
2023-04-02T04:09:31.542Z,6.13
2023-04-02T04:10:31.570Z,6.13
2023-04-02T04:11:31.510Z,6.11
2023-04-02T04:12:31.606Z,6.13
2023-04-02T04:13:31.495Z,6.13
2023-04-02T04:14:32.524Z,6.13
2023-04-02T04:15:31.467Z,6.13
2023-04-02T04:16:31.520Z,6.16
2023-04-02T04:17:31.465Z,6.16
2023-04-02T04:18:31.523Z,6.18
2023-04-02T04:19:31.437Z,6.18
2023-04-02T04:20:31.530Z,6.16
2023-04-02T04:21:31.513Z,6.19
2023-04-02T04:22:31.440Z,6.18
2023-04-02T04:23:31.383Z,6.19
2023-04-02T04:24:31.503Z,6.16
2023-04-02T04:25:31.368Z,6.18
2023-04-02T04:26:31.464Z,6.21
2023-04-02T04:27:31.344Z,6.22
2023-04-02T04:28:31.398Z,6.22
2023-04-02T04:29:31.338Z,6.22
2023-04-02T04:30:31.400Z,6.22
2023-04-02T04:31:31.327Z,6.22
2023-04-02T04:32:31.331Z,6.25
2023-04-02T04:33:31.272Z,6.26
2023-04-02T04:34:31.348Z,6.25
2023-04-02T04:35:31.301Z,6.22
2023-04-02T04:36:31.333Z,6.19
2023-04-02T04:37:31.239Z,6.19
2023-04-02T04:38:31.251Z,6.16
2023-04-02T04:39:31.240Z,6.16
2023-04-02T04:40:31.277Z,6.18
2023-04-02T04:41:31.204Z,6.18
2023-04-02T04:42:31.314Z,6.18
2023-04-02T04:43:31.175Z,6.19
2023-04-02T04:44:31.194Z,6.16
2023-04-02T04:45:31.169Z,6.18
2023-04-02T04:46:31.257Z,6.19
2023-04-02T04:47:31.222Z,6.18
2023-04-02T04:48:31.210Z,6.16
2023-04-02T04:49:31.128Z,6.18
2023-04-02T04:50:31.173Z,6.14
2023-04-02T04:51:31.105Z,6.18
2023-04-02T04:52:33.202Z,6.14
2023-04-02T04:53:31.078Z,6.18
2023-04-02T04:54:32.215Z,6.19
2023-04-02T04:55:31.084Z,6.14
2023-04-02T04:56:31.064Z,6.13
2023-04-02T04:57:31.166Z,6.13
2023-04-02T04:58:31.090Z,6.14
2023-04-02T04:59:31.024Z,6.16
2023-04-02T05:00:32.020Z,6.14
2023-04-02T05:01:31.036Z,6.13
2023-04-02T05:02:31.489Z,6.13
2023-04-02T05:03:30.960Z,6.13
2023-04-02T05:04:31.041Z,6.10
2023-04-02T05:05:30.944Z,6.10
2023-04-02T05:06:31.037Z,6.07
2023-04-02T05:07:30.938Z,6.07
2023-04-02T05:08:30.981Z,6.06
2023-04-02T05:09:30.905Z,6.07
2023-04-02T05:10:30.955Z,6.06
2023-04-02T05:11:30.903Z,6.07
2023-04-02T05:12:30.983Z,6.06
2023-04-02T05:13:30.874Z,6.06
2023-04-02T05:14:30.912Z,6.06
2023-04-02T05:15:30.897Z,6.06
2023-04-02T05:16:30.972Z,6.06
2023-04-02T05:17:30.925Z,6.07
2023-04-02T05:18:30.909Z,6.09
2023-04-02T05:19:30.892Z,6.09
2023-04-02T05:20:30.838Z,6.09
2023-04-02T05:21:30.806Z,6.09
2023-04-02T05:22:30.956Z,6.10
2023-04-02T05:23:30.793Z,6.11
2023-04-02T05:24:30.866Z,6.11
2023-04-02T05:25:30.747Z,6.10
2023-04-02T05:26:30.880Z,6.11
2023-04-02T05:27:30.808Z,6.10
2023-04-02T05:28:30.886Z,6.13
2023-04-02T05:29:30.698Z,6.13
2023-04-02T05:30:30.792Z,6.14
2023-04-02T05:31:30.703Z,6.14
2023-04-02T05:32:30.858Z,6.14
2023-04-02T05:33:30.677Z,6.13
2023-04-02T05:34:30.901Z,6.13
2023-04-02T05:35:30.643Z,6.14
2023-04-02T05:36:30.738Z,6.16
2023-04-02T05:37:30.767Z,6.16
2023-04-02T05:38:30.728Z,6.18
2023-04-02T05:39:30.604Z,6.18
2023-04-02T05:40:30.673Z,6.19
2023-04-02T05:41:30.593Z,6.19
2023-04-02T05:42:32.626Z,6.18
2023-04-02T05:43:30.578Z,6.18
2023-04-02T05:44:32.661Z,6.18
2023-04-02T05:45:30.530Z,6.19
2023-04-02T05:46:32.569Z,6.16
2023-04-02T05:47:30.543Z,6.19
2023-04-02T05:48:31.548Z,6.16
2023-04-02T05:49:30.508Z,6.18
2023-04-02T05:50:30.542Z,6.19
2023-04-02T05:51:30.479Z,6.19
2023-04-02T05:52:30.559Z,6.18
2023-04-02T05:53:30.470Z,6.18
2023-04-02T05:54:30.506Z,6.18
2023-04-02T05:55:30.561Z,6.18
2023-04-02T05:56:30.479Z,6.19
2023-04-02T05:57:42.363Z,6.19
2023-04-02T05:58:36.244Z,6.19
2023-04-02T05:59:30.396Z,6.19
2023-04-02T06:00:30.431Z,6.21
2023-04-02T06:01:30.399Z,6.22
2023-04-02T06:02:30.625Z,6.26
2023-04-02T06:03:30.450Z,6.30
2023-04-02T06:04:30.520Z,6.32
2023-04-02T06:05:30.377Z,6.33
2023-04-02T06:06:30.366Z,6.36
2023-04-02T06:07:30.326Z,6.36
2023-04-02T06:08:30.369Z,6.38
2023-04-02T06:09:30.339Z,6.40
2023-04-02T06:10:30.371Z,6.41
2023-04-02T06:11:30.286Z,6.41
2023-04-02T06:12:30.300Z,6.43
2023-04-02T06:13:30.260Z,6.43
2023-04-02T06:14:30.330Z,6.44
2023-04-02T06:15:30.254Z,6.47
2023-04-02T06:16:30.406Z,6.51
2023-04-02T06:17:30.313Z,6.51
2023-04-02T06:18:30.240Z,6.53
2023-04-02T06:19:30.250Z,6.56
2023-04-02T06:20:30.260Z,6.56
2023-04-02T06:21:30.225Z,6.59
2023-04-02T06:22:30.241Z,6.56
2023-04-02T06:23:30.148Z,6.58
2023-04-02T06:24:30.196Z,6.56
2023-04-02T06:25:30.182Z,6.58
2023-04-02T06:26:31.207Z,6.58
2023-04-02T06:27:30.200Z,6.62
2023-04-02T06:28:31.249Z,6.65
2023-04-02T06:29:30.285Z,6.68
2023-04-02T06:30:30.213Z,6.71
2023-04-02T06:31:30.107Z,6.72
2023-04-02T06:32:32.211Z,6.72
2023-04-02T06:33:30.063Z,6.76
2023-04-02T06:34:30.096Z,6.79
2023-04-02T06:35:30.057Z,6.79
2023-04-02T06:36:30.079Z,6.76
2023-04-02T06:37:30.095Z,6.76
2023-04-02T06:38:30.090Z,6.76
2023-04-02T06:39:30.065Z,6.73
2023-04-02T06:40:30.088Z,6.76
2023-04-02T06:41:29.995Z,6.76
2023-04-02T06:42:30.014Z,6.76
2023-04-02T06:43:29.947Z,6.79
2023-04-02T06:44:30.060Z,6.80
2023-04-02T06:45:30.155Z,6.81
2023-04-02T06:46:30.154Z,6.83
2023-04-02T06:47:29.920Z,6.84
2023-04-02T06:48:29.925Z,6.84
2023-04-02T06:49:29.906Z,6.89
2023-04-02T06:50:29.975Z,6.91
2023-04-02T06:51:29.864Z,6.91
2023-04-02T06:52:29.971Z,6.91
2023-04-02T06:53:29.846Z,6.91
2023-04-02T06:54:29.906Z,6.94
2023-04-02T06:55:29.920Z,6.95
2023-04-02T06:56:29.883Z,6.97
2023-04-02T06:57:29.867Z,6.97
2023-04-02T06:58:29.816Z,6.97
2023-04-02T06:59:29.784Z,6.97
2023-04-02T07:00:29.850Z,6.99
2023-04-02T07:01:29.851Z,7.02
2023-04-02T07:02:29.850Z,7.05
2023-04-02T07:03:29.734Z,7.08
2023-04-02T07:04:29.756Z,7.09
2023-04-02T07:05:29.733Z,7.13
2023-04-02T07:06:29.747Z,7.16
2023-04-02T07:07:29.697Z,7.17
2023-04-02T07:08:29.764Z,7.20
2023-04-02T07:09:29.693Z,7.22
2023-04-02T07:10:29.709Z,7.24
2023-04-02T07:11:29.718Z,7.27
2023-04-02T07:12:29.684Z,7.29
2023-04-02T07:13:29.619Z,7.34
2023-04-02T07:14:30.772Z,7.34
2023-04-02T07:15:29.637Z,7.35
2023-04-02T07:16:31.696Z,7.38
2023-04-02T07:17:29.655Z,7.41
2023-04-02T07:18:31.683Z,7.42
2023-04-02T07:19:29.607Z,7.47
2023-04-02T07:20:30.618Z,7.53
2023-04-02T07:21:29.555Z,7.62
2023-04-02T07:22:29.803Z,7.69
2023-04-02T07:23:29.526Z,7.77
2023-04-02T07:24:30.705Z,7.81
2023-04-02T07:25:29.622Z,7.89
2023-04-02T07:26:29.592Z,7.93
2023-04-02T07:27:29.596Z,7.96
2023-04-02T07:28:29.496Z,8.02
2023-04-02T07:29:29.452Z,8.03
2023-04-02T07:30:29.533Z,8.07
2023-04-02T07:31:29.458Z,8.08
2023-04-02T07:32:29.545Z,8.12
2023-04-02T07:33:29.417Z,8.15
2023-04-02T07:34:29.457Z,8.20
2023-04-02T07:35:29.416Z,8.20
2023-04-02T07:36:29.462Z,8.20
2023-04-02T07:37:29.398Z,8.25
2023-04-02T07:38:29.470Z,8.26
2023-04-02T07:39:29.354Z,8.29
2023-04-02T07:40:29.376Z,8.30
2023-04-02T07:41:29.322Z,8.32
2023-04-02T07:42:29.430Z,8.33
2023-04-02T07:43:29.328Z,8.36
2023-04-02T07:44:29.411Z,8.40
2023-04-02T07:45:29.298Z,8.44
2023-04-02T07:46:29.334Z,8.47
2023-04-02T07:47:29.313Z,8.50
2023-04-02T07:48:29.366Z,8.54
2023-04-02T07:49:29.250Z,8.58
2023-04-02T07:50:29.353Z,8.62
2023-04-02T07:51:29.232Z,8.66
2023-04-02T07:52:29.280Z,8.68
2023-04-02T07:53:29.267Z,8.65
2023-04-02T07:54:29.266Z,8.63
2023-04-02T07:55:29.205Z,8.63
2023-04-02T07:56:29.292Z,8.66
2023-04-02T07:57:29.225Z,8.68
2023-04-02T07:58:29.200Z,8.66
2023-04-02T07:59:29.202Z,8.68
2023-04-02T08:00:29.213Z,8.66
2023-04-02T08:01:29.118Z,8.63
2023-04-02T08:02:50.285Z,8.63
2023-04-02T08:03:29.158Z,8.66
2023-04-02T08:04:29.111Z,8.66
2023-04-02T08:05:31.137Z,8.65
2023-04-02T08:06:29.076Z,8.63
2023-04-02T08:07:30.094Z,8.65
2023-04-02T08:08:29.065Z,8.65
2023-04-02T08:09:29.071Z,8.68
2023-04-02T08:10:29.058Z,8.66
2023-04-02T08:11:31.118Z,8.66
2023-04-02T08:12:29.002Z,8.63
2023-04-02T08:13:29.063Z,8.63
2023-04-02T08:14:29.005Z,8.58
2023-04-02T08:15:29.082Z,8.62
2023-04-02T08:16:29.015Z,8.60
2023-04-02T08:17:29.051Z,8.58
2023-04-02T08:18:28.949Z,8.57
2023-04-02T08:19:29.051Z,8.58
2023-04-02T08:20:28.949Z,8.57
2023-04-02T08:21:28.962Z,8.55
2023-04-02T08:22:28.923Z,8.54
2023-04-02T08:23:29.008Z,8.51
2023-04-02T08:24:28.912Z,8.50
2023-04-02T08:25:28.984Z,8.47
2023-04-02T08:26:28.885Z,8.44
2023-04-02T08:27:28.926Z,8.42
2023-04-02T08:28:28.956Z,8.42
2023-04-02T08:29:28.967Z,8.37
2023-04-02T08:30:28.845Z,8.37
2023-04-02T08:31:29.023Z,8.36
2023-04-02T08:32:28.860Z,8.37
2023-04-02T08:33:28.868Z,8.36
2023-04-02T08:34:28.790Z,8.33
2023-04-02T08:35:28.973Z,8.32
2023-04-02T08:36:29.577Z,8.30
2023-04-02T08:37:28.769Z,8.30
2023-04-02T08:38:28.751Z,8.29
2023-04-02T08:39:28.786Z,8.28
2023-04-02T08:40:28.741Z,8.28
2023-04-02T08:41:28.810Z,8.28
2023-04-02T08:42:28.706Z,8.28
2023-04-02T08:43:28.729Z,8.28
2023-04-02T08:44:28.693Z,8.28
2023-04-02T08:45:28.766Z,8.28
2023-04-02T08:46:28.709Z,8.28
2023-04-02T08:47:28.812Z,8.26
2023-04-02T08:48:28.689Z,8.26
2023-04-02T08:49:49.746Z,8.28
2023-04-02T08:50:28.626Z,8.29
2023-04-02T08:51:30.691Z,8.30
2023-04-02T08:52:28.596Z,8.30
2023-04-02T08:53:30.624Z,8.32
2023-04-02T08:54:29.053Z,8.35
2023-04-02T08:55:28.591Z,8.35
2023-04-02T08:56:28.562Z,8.37
2023-04-02T08:57:28.670Z,8.39
2023-04-02T08:58:28.539Z,8.39
2023-04-02T08:59:28.616Z,8.40
2023-04-02T09:00:28.509Z,8.39
2023-04-02T09:01:28.579Z,8.40
2023-04-02T09:02:28.552Z,8.40
2023-04-02T09:03:28.544Z,8.44
2023-04-02T09:04:28.510Z,8.45
2023-04-02T09:05:28.566Z,8.50
2023-04-02T09:06:28.476Z,8.53
2023-04-02T09:07:28.480Z,8.54
2023-04-02T09:08:28.436Z,8.55
2023-04-02T09:09:28.481Z,8.60
2023-04-02T09:10:28.408Z,8.65
2023-04-02T09:11:30.283Z,8.65
2023-04-02T09:12:28.474Z,8.65
2023-04-02T09:13:28.413Z,8.66
2023-04-02T09:14:28.369Z,8.66
2023-04-02T09:15:28.415Z,8.68
2023-04-02T09:16:28.352Z,8.68
2023-04-02T09:17:30.073Z,8.69
2023-04-02T09:18:28.360Z,8.71
2023-04-02T09:19:28.357Z,8.68
2023-04-02T09:20:28.310Z,8.71
2023-04-02T09:21:28.377Z,8.71
2023-04-02T09:22:28.339Z,8.73
2023-04-02T09:23:28.382Z,8.75
2023-04-02T09:24:28.269Z,8.76
2023-04-02T09:25:28.297Z,8.79
2023-04-02T09:26:28.276Z,8.81
2023-04-02T09:27:28.300Z,8.83
2023-04-02T09:28:28.223Z,8.86
2023-04-02T09:29:28.322Z,8.88
2023-04-02T09:30:28.193Z,8.91
2023-04-02T09:31:28.301Z,8.91
2023-04-02T09:32:28.241Z,8.91
2023-04-02T09:33:28.251Z,8.94
2023-04-02T09:34:29.432Z,8.94
2023-04-02T09:35:28.263Z,8.96
2023-04-02T09:36:28.322Z,8.97
2023-04-02T09:37:52.269Z,8.96
2023-04-02T09:38:28.131Z,8.96
2023-04-02T09:39:30.138Z,8.96
2023-04-02T09:40:28.109Z,8.99
2023-04-02T09:41:29.142Z,8.96
2023-04-02T09:42:28.081Z,8.96
2023-04-02T09:43:28.166Z,8.94
2023-04-02T09:44:28.069Z,8.96
2023-04-02T09:45:28.139Z,8.96
2023-04-02T09:46:28.113Z,9.01
2023-04-02T09:47:28.104Z,9.02
2023-04-02T09:48:28.028Z,9.05
2023-04-02T09:49:28.054Z,9.05
2023-04-02T09:50:28.012Z,9.05
2023-04-02T09:51:28.070Z,9.05
2023-04-02T09:52:27.975Z,9.05
2023-04-02T09:53:28.011Z,9.04
2023-04-02T09:54:27.954Z,9.04
2023-04-02T09:55:27.992Z,9.01
2023-04-02T09:56:27.936Z,8.99
2023-04-02T09:57:29.061Z,8.97
2023-04-02T09:58:27.924Z,8.96
2023-04-02T09:59:27.934Z,8.96
2023-04-02T10:00:32.223Z,8.94
2023-04-02T10:01:27.923Z,8.93
2023-04-02T10:02:28.015Z,8.93
2023-04-02T10:03:27.873Z,8.93
2023-04-02T10:04:27.990Z,8.93
2023-04-02T10:05:40.074Z,8.96
2023-04-02T10:06:27.826Z,8.96
2023-04-02T10:07:27.909Z,8.97
2023-04-02T10:08:27.801Z,8.99
2023-04-02T10:09:27.896Z,9.02
2023-04-02T10:10:27.798Z,9.05
2023-04-02T10:11:36.644Z,9.05
2023-04-02T10:12:27.784Z,9.06
2023-04-02T10:13:27.817Z,9.06
2023-04-02T10:14:27.733Z,9.05
2023-04-02T10:15:27.834Z,9.05
2023-04-02T10:16:27.777Z,9.05
2023-04-02T10:17:28.183Z,9.06
2023-04-02T10:18:27.694Z,9.06
2023-04-02T10:19:27.758Z,9.06
2023-04-02T10:20:28.488Z,9.05
2023-04-02T10:21:27.801Z,9.04
2023-04-02T10:22:27.682Z,9.01
2023-04-02T10:24:44.356Z,9.04
2023-04-02T10:25:45.349Z,9.02
2023-04-02T10:26:45.438Z,9.01
2023-04-02T10:27:45.357Z,9.01
2023-04-02T10:28:45.470Z,9.01
2023-04-02T10:29:45.319Z,9.01
2023-04-02T10:30:45.358Z,9.04
2023-04-02T10:31:45.297Z,9.02
2023-04-02T10:32:45.432Z,9.01
2023-04-02T10:33:45.263Z,9.05
2023-04-02T10:34:45.286Z,9.02
2023-04-02T10:35:45.307Z,9.05
2023-04-02T10:36:45.294Z,9.04
2023-04-02T10:37:45.243Z,9.04
2023-04-02T10:38:47.252Z,9.04
2023-04-02T10:39:45.220Z,9.04
2023-04-02T10:40:46.278Z,9.05
2023-04-02T10:41:45.235Z,9.05
2023-04-02T10:42:45.234Z,9.05
2023-04-02T10:43:45.191Z,9.09
2023-04-02T10:44:45.235Z,9.10
2023-04-02T10:45:45.187Z,9.10
2023-04-02T10:46:45.356Z,9.12
2023-04-02T10:47:45.940Z,9.13
2023-04-02T10:48:45.167Z,9.13
2023-04-02T10:49:45.146Z,9.16
2023-04-02T10:50:46.093Z,9.15
2023-04-02T10:51:45.092Z,9.18
2023-04-02T10:52:45.133Z,9.18
2023-04-02T10:53:45.120Z,9.16
2023-04-02T10:54:46.138Z,9.15
2023-04-02T10:55:45.078Z,9.16
2023-04-02T10:56:51.021Z,9.16
2023-04-02T10:57:45.071Z,9.18
2023-04-02T10:58:45.079Z,9.16
2023-04-02T10:59:45.011Z,9.16
2023-04-02T11:00:45.044Z,9.18
2023-04-02T11:01:45.027Z,9.16
2023-04-02T11:02:45.120Z,9.16
2023-04-02T11:03:45.086Z,9.18
2023-04-02T11:04:45.013Z,9.21
2023-04-02T11:05:44.946Z,9.23
2023-04-02T11:06:45.003Z,9.25
2023-04-02T11:07:44.920Z,9.27
2023-04-02T11:08:45.962Z,9.28
2023-04-02T11:09:44.903Z,9.28
2023-04-02T11:10:45.498Z,9.28
2023-04-02T11:11:44.882Z,9.28
2023-04-02T11:12:44.933Z,9.27
2023-04-02T11:13:44.854Z,9.25
2023-04-02T11:14:44.977Z,9.27
2023-04-02T11:15:44.898Z,9.27
2023-04-02T11:16:47.151Z,9.30
2023-04-02T11:17:44.951Z,9.31
2023-04-02T11:18:44.879Z,9.32
2023-04-02T11:19:44.828Z,9.35
2023-04-02T11:20:44.898Z,9.40
2023-04-02T11:21:57.291Z,9.43
2023-04-02T11:22:44.785Z,9.50
2023-04-02T11:24:08.307Z,9.53
2023-04-02T11:24:45.104Z,9.58
2023-04-02T11:26:07.754Z,9.67
2023-04-02T11:26:44.754Z,9.75
2023-04-02T11:27:44.725Z,9.83
2023-04-02T11:28:44.714Z,9.91
2023-04-02T11:29:44.747Z,9.99
2023-04-02T11:30:44.725Z,10.04
2023-04-02T11:31:44.819Z,10.15
2023-04-02T11:32:44.706Z,10.22
2023-04-02T11:33:46.724Z,10.30
2023-04-02T11:34:44.670Z,10.36
2023-04-02T11:35:44.717Z,10.42
2023-04-02T11:36:44.637Z,10.47
2023-04-02T11:37:44.857Z,10.55
2023-04-02T11:38:44.607Z,10.58
2023-04-02T11:39:44.612Z,10.60
2023-04-02T11:40:44.653Z,10.59
2023-04-02T11:41:44.774Z,10.58
2023-04-02T11:42:48.539Z,10.55
2023-04-02T11:43:47.548Z,10.58
2023-04-02T11:44:45.131Z,10.60
2023-04-02T11:45:52.894Z,10.70
2023-04-02T11:46:44.557Z,10.73
2023-04-02T11:47:44.617Z,10.76
2023-04-02T11:48:44.508Z,10.80
2023-04-02T11:49:44.583Z,10.81
2023-04-02T11:50:44.519Z,10.78
2023-04-02T11:51:44.506Z,10.73
2023-04-02T11:52:44.454Z,10.66
2023-04-02T11:53:44.524Z,10.60
2023-04-02T11:54:44.448Z,10.56
2023-04-02T11:55:44.678Z,10.52
2023-04-02T11:56:45.628Z,10.47
2023-04-02T11:57:44.443Z,10.47
2023-04-02T11:58:44.776Z,10.52
2023-04-02T11:59:44.447Z,10.56
2023-04-02T12:00:44.425Z,10.60
2023-04-02T12:01:44.556Z,10.65
2023-04-02T12:02:44.404Z,10.68
2023-04-02T12:03:46.541Z,10.66
2023-04-02T12:04:44.441Z,10.70
2023-04-02T12:05:44.454Z,10.73
2023-04-02T12:06:44.325Z,10.74
2023-04-02T12:07:44.398Z,10.74
2023-04-02T12:08:54.667Z,10.74
2023-04-02T12:09:44.288Z,10.78
2023-04-02T12:11:07.363Z,10.78
2023-04-02T12:11:44.262Z,10.76
2023-04-02T12:12:44.387Z,10.76
2023-04-02T12:13:44.249Z,10.76
2023-04-02T12:14:44.237Z,10.74
2023-04-02T12:15:44.230Z,10.71
2023-04-02T12:16:44.305Z,10.73
2023-04-02T12:17:44.269Z,10.70
2023-04-02T12:18:46.229Z,10.68
2023-04-02T12:19:44.181Z,10.68
2023-04-02T12:20:44.184Z,10.70
2023-04-02T12:21:44.181Z,10.71
2023-04-02T12:22:44.202Z,10.74
2023-04-02T12:23:44.162Z,10.76
2023-04-02T12:24:44.205Z,10.78
2023-04-02T12:25:44.114Z,10.80
2023-04-02T12:26:44.123Z,10.81
2023-04-02T12:27:44.098Z,10.81
2023-04-02T12:28:44.151Z,10.80
2023-04-02T12:29:44.110Z,10.77
2023-04-02T12:30:44.206Z,10.74
2023-04-02T12:31:44.078Z,10.73
2023-04-02T12:32:44.103Z,10.73
2023-04-02T12:33:44.053Z,10.71
2023-04-02T12:34:44.088Z,10.71
2023-04-02T12:35:44.030Z,10.70
2023-04-02T12:36:44.104Z,10.68
2023-04-02T12:37:44.026Z,10.68
2023-04-02T12:38:44.030Z,10.66
2023-04-02T12:39:43.988Z,10.63
2023-04-02T12:40:44.030Z,10.62
2023-04-02T12:41:43.943Z,10.65
2023-04-02T12:42:44.031Z,10.63
2023-04-02T12:43:43.929Z,10.63
2023-04-02T12:44:44.025Z,10.63
2023-04-02T12:45:43.894Z,10.63
2023-04-02T12:46:44.066Z,10.63
2023-04-02T12:47:43.931Z,10.62
2023-04-02T12:48:43.985Z,10.62
2023-04-02T12:49:43.907Z,10.62
2023-04-02T12:50:43.909Z,10.60
2023-04-02T12:51:43.847Z,10.60
2023-04-02T12:52:43.901Z,10.62
2023-04-02T12:53:43.817Z,10.60
2023-04-02T12:54:43.879Z,10.58
2023-04-02T12:55:43.800Z,10.56
2023-04-02T12:56:43.828Z,10.55
2023-04-02T12:57:43.835Z,10.53
2023-04-02T12:58:43.857Z,10.51
2023-04-02T12:59:43.776Z,10.43
2023-04-02T13:00:43.799Z,10.43
2023-04-02T13:01:43.745Z,10.42
2023-04-02T13:02:43.908Z,10.39
2023-04-02T13:03:43.797Z,10.39
2023-04-02T13:04:43.858Z,10.37
2023-04-02T13:05:43.715Z,10.36
2023-04-02T13:06:44.728Z,10.33
2023-04-02T13:07:43.683Z,10.32
2023-04-02T13:08:43.716Z,10.26
2023-04-02T13:09:43.665Z,10.26
2023-04-02T13:10:43.799Z,10.24
2023-04-02T13:11:43.657Z,10.22
2023-04-02T13:12:43.654Z,10.18
2023-04-02T13:13:43.620Z,10.17
2023-04-02T13:14:43.727Z,10.15
2023-04-02T13:15:43.709Z,10.14